createdAt,value
2022-10-15T00:02:02.296Z,43.09
2022-10-15T00:07:09.496Z,43.06
2022-10-15T00:12:16.639Z,43.10
2022-10-15T00:17:24.346Z,43.09
2022-10-15T00:22:30.990Z,42.78
2022-10-15T00:27:38.205Z,42.36
2022-10-15T00:32:45.409Z,42.31
2022-10-15T00:37:52.654Z,42.39
2022-10-15T00:42:59.812Z,42.36
2022-10-15T00:48:07.050Z,42.38
2022-10-15T00:53:14.210Z,42.41
2022-10-15T00:58:21.439Z,42.48
2022-10-15T01:03:28.700Z,42.49
2022-10-15T01:08:35.903Z,42.50
2022-10-15T01:13:43.154Z,42.55
2022-10-15T01:18:50.377Z,42.66
2022-10-15T01:23:57.559Z,42.77
2022-10-15T01:29:04.870Z,42.84
2022-10-15T01:34:14.970Z,42.92
2022-10-15T01:39:19.386Z,43.01
2022-10-15T01:44:26.563Z,43.13
2022-10-15T01:49:33.813Z,43.22
2022-10-15T01:54:40.989Z,43.24
2022-10-15T01:59:48.199Z,43.39
2022-10-15T02:04:55.421Z,43.37
2022-10-15T02:10:02.612Z,43.54
2022-10-15T02:15:09.813Z,43.53
2022-10-15T02:20:17.000Z,43.66
2022-10-15T02:25:24.220Z,43.63
2022-10-15T02:30:31.437Z,43.67
2022-10-15T02:35:38.678Z,43.77
2022-10-15T02:40:47.674Z,43.75
2022-10-15T02:45:54.894Z,43.83
2022-10-15T02:51:02.105Z,43.86
2022-10-15T02:56:09.282Z,44.02
2022-10-15T03:01:16.538Z,43.99
2022-10-15T03:06:23.606Z,43.96
2022-10-15T03:11:30.785Z,43.94
2022-10-15T03:16:37.935Z,44.00
2022-10-15T03:21:45.120Z,44.09
2022-10-15T03:26:52.300Z,44.10
2022-10-15T03:31:59.507Z,44.21
2022-10-15T03:37:06.803Z,44.15
2022-10-15T03:42:13.986Z,44.31
2022-10-15T03:47:21.195Z,44.19
2022-10-15T03:52:28.453Z,44.35
2022-10-15T03:57:35.623Z,44.32
2022-10-15T04:02:42.850Z,44.24
2022-10-15T04:07:50.073Z,44.28
2022-10-15T04:12:57.300Z,44.25
2022-10-15T04:18:04.556Z,44.31
2022-10-15T04:23:11.777Z,44.38
2022-10-15T04:28:19.055Z,44.42
2022-10-15T04:33:26.289Z,44.45
2022-10-15T04:38:33.494Z,44.42
2022-10-15T04:43:40.646Z,44.18
2022-10-15T04:48:47.934Z,44.24
2022-10-15T04:53:55.219Z,44.24
2022-10-15T04:59:02.403Z,44.05
2022-10-15T05:04:09.630Z,44.08
2022-10-15T05:09:16.909Z,44.10
2022-10-15T05:14:24.088Z,44.03
2022-10-15T05:19:31.344Z,43.97
2022-10-15T05:24:38.602Z,44.27
2022-10-15T05:29:45.712Z,44.10
2022-10-15T05:34:52.948Z,44.30
2022-10-15T05:40:00.177Z,44.36
2022-10-15T05:45:07.405Z,44.47
2022-10-15T05:50:14.607Z,44.44
2022-10-15T05:55:21.882Z,44.49
2022-10-15T06:00:29.085Z,44.68
2022-10-15T06:05:36.259Z,44.65
2022-10-15T06:10:43.485Z,44.63
2022-10-15T06:15:50.673Z,44.59
2022-10-15T06:20:57.935Z,44.68
2022-10-15T06:26:05.404Z,44.56
2022-10-15T06:31:12.498Z,44.40
2022-10-15T06:36:19.704Z,44.56
2022-10-15T06:41:27.165Z,44.44
2022-10-15T06:46:34.132Z,44.43
2022-10-15T06:51:41.339Z,44.42
2022-10-15T06:56:48.792Z,44.43
2022-10-15T07:01:56.021Z,44.45
2022-10-15T07:07:03.259Z,44.37
2022-10-15T07:12:10.487Z,44.29
2022-10-15T07:17:17.659Z,44.28
2022-10-15T07:22:25.099Z,44.40
2022-10-15T07:27:32.068Z,44.28
2022-10-15T07:32:39.265Z,44.28
2022-10-15T07:37:46.441Z,44.41
2022-10-15T07:42:53.729Z,44.34
2022-10-15T07:48:00.881Z,44.57
2022-10-15T07:53:08.068Z,44.95
2022-10-15T07:58:15.300Z,45.02
2022-10-15T08:03:22.485Z,44.61
2022-10-15T08:08:32.443Z,44.58
2022-10-15T08:13:40.833Z,44.90
2022-10-15T08:18:48.141Z,44.98
2022-10-15T08:23:55.293Z,44.97
2022-10-15T08:29:02.604Z,44.83
2022-10-15T08:34:09.693Z,44.68
2022-10-15T08:39:16.872Z,44.93
2022-10-15T08:44:24.151Z,45.03
2022-10-15T08:49:31.317Z,45.49
2022-10-15T08:54:38.498Z,45.39
2022-10-15T08:59:45.729Z,45.32
2022-10-15T09:04:52.978Z,46.94
2022-10-15T09:10:00.151Z,45.59
2022-10-15T09:15:07.394Z,45.54
2022-10-15T09:20:14.558Z,46.22
2022-10-15T09:25:21.762Z,45.70
2022-10-15T09:30:28.995Z,45.47
2022-10-15T09:35:36.426Z,46.77
2022-10-15T09:40:43.670Z,45.64
2022-10-15T09:45:50.865Z,45.77
2022-10-15T09:50:58.074Z,45.66
2022-10-15T09:56:05.291Z,45.54
2022-10-15T10:01:12.520Z,45.53
2022-10-15T10:06:19.701Z,46.51
2022-10-15T10:11:26.894Z,45.92
2022-10-15T10:16:34.184Z,45.82
2022-10-15T10:21:41.333Z,45.69
2022-10-15T10:26:48.670Z,45.60
2022-10-15T10:31:55.935Z,45.39
2022-10-15T10:37:03.145Z,45.34
2022-10-15T10:42:10.360Z,45.17
2022-10-15T10:47:17.531Z,45.15
2022-10-15T10:52:24.776Z,45.11
2022-10-15T10:57:31.954Z,45.09
2022-10-15T11:02:39.193Z,44.99
2022-10-15T11:07:46.542Z,45.10
2022-10-15T11:12:53.783Z,45.14
2022-10-15T11:18:01.013Z,45.20
2022-10-15T11:23:08.209Z,45.47
2022-10-15T11:28:15.379Z,46.34
2022-10-15T11:33:24.050Z,46.87
2022-10-15T11:38:31.229Z,46.52
2022-10-15T11:43:38.440Z,46.21
2022-10-15T11:48:45.637Z,45.84
2022-10-15T11:53:53.858Z,46.41
2022-10-15T11:59:01.046Z,46.32
2022-10-15T12:04:08.358Z,46.24
2022-10-15T12:09:15.489Z,46.29
2022-10-15T12:14:22.683Z,46.23
2022-10-15T12:19:29.924Z,46.19
2022-10-15T12:24:37.092Z,45.93
2022-10-15T12:29:44.294Z,45.91
2022-10-15T12:34:51.507Z,46.02
2022-10-15T12:39:58.627Z,45.96
2022-10-15T12:45:05.902Z,45.90
2022-10-15T12:50:13.751Z,45.88
2022-10-15T12:55:20.962Z,45.88
2022-10-15T13:00:28.357Z,45.86
2022-10-15T13:05:35.566Z,45.80
2022-10-15T13:10:42.806Z,45.79
2022-10-15T13:15:52.028Z,45.92
2022-10-15T13:20:57.287Z,45.87
2022-10-15T13:26:04.480Z,45.80
2022-10-15T13:31:11.751Z,45.75
2022-10-15T13:36:19.005Z,45.73
2022-10-15T13:41:26.179Z,45.69
2022-10-15T13:46:33.400Z,45.71
2022-10-15T13:51:40.620Z,45.72
2022-10-15T13:56:50.298Z,45.75
2022-10-15T14:01:55.002Z,45.72
2022-10-15T14:07:02.865Z,45.76
2022-10-15T14:12:09.419Z,45.76
2022-10-15T14:17:16.587Z,45.82
2022-10-15T14:22:24.060Z,45.91
2022-10-15T14:27:31.236Z,45.98
2022-10-15T14:32:38.451Z,46.09
2022-10-15T14:37:45.679Z,46.00
2022-10-15T14:42:52.869Z,46.02
2022-10-15T14:48:00.101Z,46.09
2022-10-15T14:53:07.408Z,46.09
2022-10-15T14:58:14.686Z,46.03
2022-10-15T15:03:21.949Z,46.29
2022-10-15T15:08:29.130Z,46.35
2022-10-15T15:13:36.365Z,46.40
2022-10-15T15:18:43.588Z,46.41
2022-10-15T15:23:50.820Z,46.36
2022-10-15T15:29:00.739Z,46.47
2022-10-15T15:34:07.912Z,46.50
2022-10-15T15:39:15.267Z,46.61
2022-10-15T15:44:22.490Z,46.46
2022-10-15T15:49:29.687Z,46.66
2022-10-15T15:54:36.974Z,46.63
2022-10-15T15:59:44.091Z,46.76
2022-10-15T16:04:51.299Z,46.71
2022-10-15T16:09:58.502Z,46.62
2022-10-15T16:15:07.854Z,46.57
2022-10-15T16:20:12.928Z,46.58
2022-10-15T16:25:20.178Z,46.69
2022-10-15T16:30:27.320Z,46.72
2022-10-15T16:35:34.528Z,46.78
2022-10-15T16:40:41.822Z,47.14
2022-10-15T16:45:48.957Z,47.70
2022-10-15T16:50:56.155Z,47.16
2022-10-15T16:56:03.369Z,46.88
2022-10-15T17:01:10.540Z,47.96
2022-10-15T17:06:17.767Z,47.54
2022-10-15T17:11:25.169Z,47.27
2022-10-15T17:16:32.384Z,47.15
2022-10-15T17:21:42.447Z,47.15
2022-10-15T17:26:47.514Z,47.20
2022-10-15T17:31:54.913Z,47.33
2022-10-15T17:37:02.422Z,47.26
2022-10-15T17:42:09.766Z,47.62
2022-10-15T17:47:16.920Z,47.40
2022-10-15T17:52:24.156Z,47.59
2022-10-15T17:57:31.667Z,47.53
2022-10-15T18:02:39.315Z,47.84
2022-10-15T18:07:46.971Z,48.72
2022-10-15T18:12:54.323Z,50.80
2022-10-15T18:18:01.791Z,49.01
2022-10-15T18:23:11.458Z,48.29
2022-10-15T18:28:19.127Z,48.16
2022-10-15T18:33:26.785Z,48.07
2022-10-15T18:38:34.295Z,48.00
2022-10-15T18:43:43.163Z,48.09
2022-10-15T18:48:50.655Z,48.14
2022-10-15T18:53:58.163Z,48.17
2022-10-15T18:59:05.625Z,48.05
2022-10-15T19:04:13.081Z,47.90
2022-10-15T19:09:20.394Z,47.83
2022-10-15T19:14:27.933Z,47.81
2022-10-15T19:19:35.267Z,47.69
2022-10-15T19:24:42.438Z,47.63
2022-10-15T19:29:49.656Z,47.55
2022-10-15T19:34:57.136Z,47.49
2022-10-15T19:40:04.443Z,47.73
2022-10-15T19:45:11.701Z,47.32
2022-10-15T19:50:19.055Z,47.33
2022-10-15T19:55:26.455Z,47.38
2022-10-15T20:00:34.002Z,47.41
2022-10-15T20:05:41.349Z,47.43
2022-10-15T20:10:48.543Z,47.42
2022-10-15T20:15:55.871Z,47.43
2022-10-15T20:21:03.086Z,47.29
2022-10-15T20:26:10.518Z,47.27
2022-10-15T20:31:17.918Z,47.20
2022-10-15T20:36:25.140Z,47.53
2022-10-15T20:41:32.337Z,47.00
2022-10-15T20:46:39.619Z,46.93
2022-10-15T20:51:46.814Z,47.00
2022-10-15T20:56:53.999Z,47.48
2022-10-15T21:02:01.198Z,47.14
2022-10-15T21:07:08.550Z,46.94
2022-10-15T21:12:15.782Z,48.45
2022-10-15T21:17:23.360Z,47.64
2022-10-15T21:22:30.197Z,48.87
2022-10-15T21:27:37.464Z,47.99
2022-10-15T21:32:44.730Z,47.84
2022-10-15T21:37:51.977Z,47.36
2022-10-15T21:42:59.200Z,47.14
2022-10-15T21:48:09.192Z,48.48
2022-10-15T21:53:16.377Z,47.45
2022-10-15T21:58:23.576Z,47.30
2022-10-15T22:03:30.809Z,47.18
2022-10-15T22:08:38.003Z,47.18
2022-10-15T22:13:47.133Z,47.11
2022-10-15T22:18:54.377Z,47.06
2022-10-15T22:24:01.567Z,47.01
2022-10-15T22:29:08.808Z,47.01
2022-10-15T22:34:15.969Z,47.04
2022-10-15T22:39:23.108Z,47.02
2022-10-15T22:44:30.362Z,47.00
2022-10-15T22:49:37.543Z,47.02
2022-10-15T22:54:44.769Z,47.05
2022-10-15T22:59:55.833Z,47.05
2022-10-15T23:04:59.129Z,47.06
2022-10-15T23:10:06.266Z,47.04
2022-10-15T23:15:13.494Z,47.05
2022-10-15T23:20:20.728Z,47.06
2022-10-15T23:25:28.010Z,47.01
2022-10-15T23:30:35.228Z,47.12
2022-10-15T23:35:42.562Z,47.11
2022-10-15T23:40:49.726Z,47.13
2022-10-15T23:45:56.890Z,47.07
2022-10-15T23:51:04.182Z,47.09
2022-10-15T23:56:11.346Z,47.09
